createdAt,value
2018-05-08T00:00:14.560Z,11.8
2018-05-08T00:01:15.276Z,11.8
2018-05-08T00:02:15.999Z,11.8
2018-05-08T00:03:16.722Z,11.7
2018-05-08T00:04:17.445Z,11.8
2018-05-08T00:05:18.169Z,11.8
2018-05-08T00:06:18.901Z,11.8
2018-05-08T00:07:19.628Z,11.8
2018-05-08T00:08:20.366Z,11.8
2018-05-08T00:09:21.094Z,11.8
2018-05-08T00:10:21.821Z,11.8
2018-05-08T00:11:22.545Z,11.8
2018-05-08T00:12:23.274Z,11.8
2018-05-08T00:13:24.038Z,11.8
2018-05-08T00:14:24.757Z,11.8
2018-05-08T00:15:25.476Z,11.9
2018-05-08T00:16:26.198Z,12.0
2018-05-08T00:17:26.905Z,12.0
2018-05-08T00:18:27.620Z,12.0
2018-05-08T00:19:28.337Z,12.0
2018-05-08T00:20:29.071Z,12.2
2018-05-08T00:21:29.780Z,12.1
2018-05-08T00:22:30.510Z,12.2
2018-05-08T00:23:31.220Z,12.1
2018-05-08T00:24:32.091Z,12.2
2018-05-08T00:25:32.815Z,12.1
2018-05-08T00:26:33.537Z,12.1
2018-05-08T00:27:34.263Z,12.1
2018-05-08T00:28:34.982Z,12.1
2018-05-08T00:29:35.704Z,12.2
2018-05-08T00:30:36.437Z,12.2
2018-05-08T00:31:37.271Z,12.2
2018-05-08T00:32:37.998Z,12.2
2018-05-08T00:33:38.718Z,12.3
2018-05-08T00:34:39.434Z,12.4
2018-05-08T00:35:40.156Z,12.3
2018-05-08T00:36:40.897Z,12.4
2018-05-08T00:37:41.617Z,12.4
2018-05-08T00:38:42.332Z,12.4
2018-05-08T00:39:43.056Z,12.3
2018-05-08T00:40:44.023Z,12.3
2018-05-08T00:41:44.841Z,12.3
2018-05-08T00:42:45.567Z,12.3
2018-05-08T00:43:46.307Z,12.2
2018-05-08T00:44:47.042Z,12.2
2018-05-08T00:45:47.760Z,12.1
2018-05-08T00:46:48.575Z,12.1
2018-05-08T00:47:49.301Z,12.1
2018-05-08T00:48:50.018Z,12.1
2018-05-08T00:49:50.744Z,12.1
2018-05-08T00:50:51.480Z,12.1
2018-05-08T00:51:52.305Z,12.0
2018-05-08T00:52:53.034Z,12.1
2018-05-08T00:53:53.756Z,12.1
2018-05-08T00:54:54.493Z,12.0
2018-05-08T00:55:55.209Z,12.0
2018-05-08T00:56:55.949Z,11.9
2018-05-08T00:57:56.663Z,12.0
2018-05-08T00:58:57.384Z,11.9
2018-05-08T00:59:58.098Z,12.0
2018-05-08T01:00:58.806Z,12.0
2018-05-08T01:01:59.532Z,11.8
2018-05-08T01:03:00.246Z,11.8
2018-05-08T01:04:00.993Z,11.9
2018-05-08T01:05:01.705Z,11.8
2018-05-08T01:06:02.420Z,11.8
2018-05-08T01:07:03.163Z,11.8
2018-05-08T01:08:03.883Z,11.7
2018-05-08T01:09:04.597Z,11.7
2018-05-08T01:10:05.378Z,11.7
2018-05-08T01:11:06.348Z,11.7
2018-05-08T01:12:07.074Z,11.6
2018-05-08T01:13:08.033Z,11.6
2018-05-08T01:14:08.753Z,11.5
2018-05-08T01:15:09.523Z,11.6
2018-05-08T01:16:10.238Z,11.4
2018-05-08T01:17:10.967Z,11.5
2018-05-08T01:18:11.694Z,11.5
2018-05-08T01:19:12.420Z,11.4
2018-05-08T01:20:13.182Z,11.3
2018-05-08T01:21:13.901Z,11.4
2018-05-08T01:22:14.621Z,11.4
2018-05-08T01:23:15.375Z,11.4
2018-05-08T01:24:16.122Z,11.3
2018-05-08T01:25:16.925Z,11.3
2018-05-08T01:26:17.786Z,11.3
2018-05-08T01:27:18.622Z,11.2
2018-05-08T01:28:19.388Z,11.3
2018-05-08T01:29:20.265Z,11.2
2018-05-08T01:30:21.140Z,11.2
2018-05-08T01:31:21.953Z,11.3
2018-05-08T01:32:23.119Z,11.2
2018-05-08T01:33:23.896Z,11.2
2018-05-08T01:34:24.794Z,11.2
2018-05-08T01:35:25.664Z,11.2
2018-05-08T01:36:26.426Z,11.1
2018-05-08T01:37:27.257Z,11.1
2018-05-08T01:38:28.095Z,11.1
2018-05-08T01:39:28.872Z,11.1
2018-05-08T01:40:29.737Z,11.2
2018-05-08T01:41:30.480Z,11.1
2018-05-08T01:42:31.198Z,11.0
2018-05-08T01:43:31.991Z,11.0
2018-05-08T01:44:32.765Z,10.9
2018-05-08T01:45:33.614Z,10.9
2018-05-08T01:46:34.356Z,10.9
2018-05-08T01:47:35.302Z,10.9
2018-05-08T01:48:36.077Z,10.9
2018-05-08T01:49:36.806Z,10.9
2018-05-08T01:50:37.539Z,10.9
2018-05-08T01:51:38.256Z,10.9
2018-05-08T01:52:39.234Z,10.9
2018-05-08T01:53:40.097Z,10.8
2018-05-08T01:54:40.842Z,10.8
2018-05-08T01:55:41.559Z,10.7
2018-05-08T01:56:42.276Z,10.7
2018-05-08T01:57:42.993Z,10.7
2018-05-08T01:58:43.716Z,10.7
2018-05-08T01:59:44.444Z,10.7
2018-05-08T02:00:45.163Z,10.7
2018-05-08T02:01:45.881Z,10.6
2018-05-08T02:02:46.604Z,10.7
2018-05-08T02:03:47.335Z,10.6
2018-05-08T02:04:48.413Z,10.6
2018-05-08T02:05:49.141Z,10.6
2018-05-08T02:06:49.872Z,10.6
2018-05-08T02:07:50.591Z,10.5
2018-05-08T02:08:51.311Z,10.4
2018-05-08T02:09:52.055Z,10.5
2018-05-08T02:10:52.766Z,10.6
2018-05-08T02:11:53.507Z,10.5
2018-05-08T02:12:54.235Z,10.6
2018-05-08T02:13:54.946Z,10.4
2018-05-08T02:14:55.667Z,10.5
2018-05-08T02:15:56.382Z,10.5
2018-05-08T02:16:57.104Z,10.4
2018-05-08T02:17:57.833Z,10.5
2018-05-08T02:18:58.548Z,10.5
2018-05-08T02:19:59.273Z,10.5
2018-05-08T02:21:00.695Z,10.4
2018-05-08T02:22:01.414Z,10.4
2018-05-08T02:23:02.145Z,10.5
2018-05-08T02:24:02.872Z,10.4
2018-05-08T02:25:03.596Z,10.5
2018-05-08T02:26:04.422Z,10.4
2018-05-08T02:27:05.140Z,10.4
2018-05-08T02:28:05.860Z,10.5
2018-05-08T02:29:06.584Z,10.4
2018-05-08T02:30:07.308Z,10.4
2018-05-08T02:31:08.035Z,10.4
2018-05-08T02:32:08.757Z,10.4
2018-05-08T02:33:09.492Z,10.3
2018-05-08T02:34:10.213Z,10.4
2018-05-08T02:35:10.923Z,10.4
2018-05-08T02:36:11.644Z,10.4
2018-05-08T02:37:12.526Z,10.4
2018-05-08T02:38:13.245Z,10.4
2018-05-08T02:39:13.968Z,10.4
2018-05-08T02:40:14.683Z,10.4
2018-05-08T02:41:15.407Z,10.4
2018-05-08T02:42:16.480Z,10.4
2018-05-08T02:43:17.214Z,10.4
2018-05-08T02:44:17.922Z,10.4
2018-05-08T02:45:18.649Z,10.3
2018-05-08T02:46:19.364Z,10.4
2018-05-08T02:47:20.186Z,10.5
2018-05-08T02:48:21.168Z,10.5
2018-05-08T02:49:21.923Z,10.4
2018-05-08T02:50:22.651Z,10.5
2018-05-08T02:51:23.420Z,10.4
2018-05-08T02:52:24.282Z,10.4
2018-05-08T02:53:25.138Z,10.4
2018-05-08T02:54:25.918Z,10.3
2018-05-08T02:55:26.676Z,10.3
2018-05-08T02:56:27.388Z,10.4
2018-05-08T02:57:28.276Z,10.3
2018-05-08T02:58:28.997Z,10.4
2018-05-08T02:59:29.709Z,10.4
2018-05-08T03:00:30.424Z,10.4
2018-05-08T03:01:31.169Z,10.4
2018-05-08T03:02:31.879Z,10.4
2018-05-08T03:03:32.608Z,10.4
2018-05-08T03:04:33.330Z,10.4
2018-05-08T03:05:34.056Z,10.4
2018-05-08T03:06:34.787Z,10.4
2018-05-08T03:07:35.508Z,10.3
2018-05-08T03:08:36.216Z,10.4
2018-05-08T03:09:36.941Z,10.4
2018-05-08T03:10:37.659Z,10.4
2018-05-08T03:11:38.375Z,10.4
2018-05-08T03:12:39.104Z,10.3
2018-05-08T03:13:39.835Z,10.3
2018-05-08T03:14:40.826Z,10.3
2018-05-08T03:15:41.546Z,10.3
2018-05-08T03:16:42.253Z,10.3
2018-05-08T03:17:42.966Z,10.2
2018-05-08T03:18:43.688Z,10.3
2018-05-08T03:19:44.400Z,10.2
2018-05-08T03:20:45.144Z,10.3
2018-05-08T03:21:46.103Z,10.3
2018-05-08T03:22:46.818Z,10.2
2018-05-08T03:23:47.535Z,10.3
2018-05-08T03:24:48.257Z,10.2
2018-05-08T03:25:49.237Z,10.2
2018-05-08T03:26:49.940Z,10.2
2018-05-08T03:27:50.677Z,10.2
2018-05-08T03:28:51.455Z,10.2
2018-05-08T03:29:52.197Z,10.1
2018-05-08T03:30:52.921Z,10.1
2018-05-08T03:31:53.643Z,10.1
2018-05-08T03:32:54.628Z,10.1
2018-05-08T03:33:55.331Z,10.2
2018-05-08T03:34:56.059Z,10.2
2018-05-08T03:35:56.831Z,10.1
2018-05-08T03:36:57.560Z,10.1
2018-05-08T03:37:58.275Z,10.1
2018-05-08T03:38:59.027Z,10.1
2018-05-08T03:39:59.760Z,10.1
2018-05-08T03:41:00.580Z,10.2
2018-05-08T03:42:01.293Z,10.1
2018-05-08T03:43:02.016Z,10.2
2018-05-08T03:44:02.745Z,10.2
2018-05-08T03:45:03.461Z,10.2
2018-05-08T03:46:04.237Z,10.1
2018-05-08T03:47:04.962Z,10.1
2018-05-08T03:48:05.682Z,10.2
2018-05-08T03:49:06.411Z,10.1
2018-05-08T03:50:07.131Z,10.1
2018-05-08T03:51:07.862Z,10.1
2018-05-08T03:52:08.856Z,10.0
2018-05-08T03:53:09.580Z,10.1
2018-05-08T03:54:10.296Z,9.9
2018-05-08T03:55:11.079Z,10.0
2018-05-08T03:56:11.814Z,10.0
2018-05-08T03:57:12.537Z,9.9
2018-05-08T03:58:13.272Z,9.8
2018-05-08T03:59:14.242Z,9.9
2018-05-08T04:00:14.963Z,9.9
2018-05-08T04:01:16.033Z,9.8
2018-05-08T04:02:16.767Z,9.9
2018-05-08T04:03:17.577Z,9.9
2018-05-08T04:04:18.346Z,9.9
2018-05-08T04:05:19.123Z,9.8
2018-05-08T04:06:20.004Z,9.9
2018-05-08T04:07:20.768Z,9.8
2018-05-08T04:08:21.644Z,9.8
2018-05-08T04:09:22.372Z,9.9
2018-05-08T04:10:23.232Z,9.9
2018-05-08T04:11:24.397Z,9.9
2018-05-08T04:12:25.248Z,9.9
2018-05-08T04:13:26.101Z,9.9
2018-05-08T04:14:26.864Z,9.9
2018-05-08T04:15:27.720Z,9.9
2018-05-08T04:16:28.403Z,10.0
2018-05-08T04:17:29.126Z,9.9
2018-05-08T04:18:29.871Z,9.9
2018-05-08T04:19:30.595Z,9.9
2018-05-08T04:20:31.326Z,10.0
2018-05-08T04:21:32.065Z,10.0
2018-05-08T04:22:32.858Z,10.0
2018-05-08T04:23:33.582Z,10.1
2018-05-08T04:24:34.306Z,10.0
2018-05-08T04:25:35.030Z,9.9
2018-05-08T04:26:35.749Z,10.0
2018-05-08T04:27:36.515Z,10.0
2018-05-08T04:28:37.246Z,10.0
2018-05-08T04:29:37.971Z,10.0
2018-05-08T04:30:38.942Z,9.9
2018-05-08T04:31:39.673Z,10.0
2018-05-08T04:32:40.880Z,10.1
2018-05-08T04:33:41.579Z,10.0
2018-05-08T04:34:42.312Z,10.1
2018-05-08T04:35:43.043Z,10.1
2018-05-08T04:36:43.810Z,10.1
2018-05-08T04:37:44.646Z,10.2
2018-05-08T04:38:45.361Z,10.2
2018-05-08T04:39:46.089Z,10.2
2018-05-08T04:40:46.821Z,10.2
2018-05-08T04:41:47.550Z,10.3
2018-05-08T04:42:48.670Z,10.3
2018-05-08T04:43:49.403Z,10.3
2018-05-08T04:44:50.391Z,10.3
2018-05-08T04:45:51.095Z,10.3
2018-05-08T04:46:51.822Z,10.4
2018-05-08T04:47:52.550Z,10.3
2018-05-08T04:48:53.276Z,10.5
2018-05-08T04:49:54.002Z,10.4
2018-05-08T04:50:54.777Z,10.5
2018-05-08T04:51:55.489Z,10.5
2018-05-08T04:52:56.210Z,10.7
2018-05-08T04:53:56.935Z,10.7
2018-05-08T04:54:57.918Z,10.8
2018-05-08T04:55:58.654Z,10.8
2018-05-08T04:56:59.372Z,10.9
2018-05-08T04:58:00.093Z,10.9
2018-05-08T04:59:01.083Z,11.0
2018-05-08T05:00:02.156Z,10.9
2018-05-08T05:01:02.865Z,11.0
2018-05-08T05:02:03.593Z,11.1
2018-05-08T05:03:04.335Z,11.1
2018-05-08T05:04:05.109Z,11.3
2018-05-08T05:05:05.855Z,11.3
2018-05-08T05:06:06.560Z,11.4
2018-05-08T05:07:07.642Z,11.4
2018-05-08T05:08:08.369Z,11.5
2018-05-08T05:09:09.336Z,11.6
2018-05-08T05:10:10.086Z,11.7
2018-05-08T05:11:10.830Z,11.8
2018-05-08T05:12:11.978Z,11.8
2018-05-08T05:13:12.993Z,11.9
2018-05-08T05:14:13.717Z,12.0
2018-05-08T05:15:14.441Z,12.2
2018-05-08T05:16:15.155Z,12.3
2018-05-08T05:17:15.929Z,12.3
2018-05-08T05:18:16.879Z,12.5
2018-05-08T05:19:18.028Z,12.7
2018-05-08T05:20:18.793Z,13.0
2018-05-08T05:21:19.689Z,13.3
2018-05-08T05:22:20.462Z,13.5
2018-05-08T05:23:21.303Z,13.9
2018-05-08T05:24:22.220Z,14.1
2018-05-08T05:25:22.909Z,14.5
2018-05-08T05:26:23.733Z,14.6
2018-05-08T05:27:24.503Z,15.0
2018-05-08T05:28:25.302Z,15.3
2018-05-08T05:29:26.150Z,15.5
2018-05-08T05:30:26.877Z,15.6
2018-05-08T05:31:27.869Z,15.8
2018-05-08T05:32:28.597Z,15.8
2018-05-08T05:33:29.330Z,16.0
2018-05-08T05:34:30.055Z,16.2
2018-05-08T05:35:31.947Z,16.3
2018-05-08T05:36:33.556Z,16.5
2018-05-08T05:37:34.651Z,16.7
2018-05-08T05:38:35.377Z,16.9
2018-05-08T05:39:36.134Z,16.9
2018-05-08T05:40:36.942Z,17.0
2018-05-08T05:41:37.647Z,17.0
2018-05-08T05:42:38.375Z,17.0
2018-05-08T05:43:39.111Z,17.1
2018-05-08T05:44:39.842Z,17.2
2018-05-08T05:45:40.828Z,17.3
2018-05-08T05:46:41.576Z,17.2
2018-05-08T05:47:42.314Z,17.3
2018-05-08T05:48:43.033Z,17.3
2018-05-08T05:49:43.753Z,17.2
2018-05-08T05:50:44.537Z,17.2
2018-05-08T05:51:45.271Z,17.1
2018-05-08T05:52:45.996Z,17.0
2018-05-08T05:53:46.743Z,17.1
2018-05-08T05:54:47.475Z,16.9
2018-05-08T05:55:48.560Z,17.0
2018-05-08T05:56:49.557Z,17.0
2018-05-08T05:57:50.279Z,16.9
2018-05-08T05:58:51.000Z,16.9
2018-05-08T05:59:51.729Z,17.0
2018-05-08T06:00:52.504Z,16.9
2018-05-08T06:01:53.227Z,16.9
2018-05-08T06:02:53.952Z,16.8
2018-05-08T06:03:54.695Z,16.8
2018-05-08T06:04:55.414Z,16.8
2018-05-08T06:05:56.294Z,16.8
2018-05-08T06:06:57.026Z,16.8
2018-05-08T06:07:57.766Z,16.8
2018-05-08T06:08:58.493Z,16.8
2018-05-08T06:09:59.223Z,16.9
2018-05-08T06:10:59.957Z,16.9
2018-05-08T06:12:00.775Z,17.0
2018-05-08T06:13:01.465Z,17.0
2018-05-08T06:14:02.205Z,17.0
2018-05-08T06:15:02.931Z,17.0
2018-05-08T06:16:03.673Z,17.0
2018-05-08T06:17:04.399Z,17.0
2018-05-08T06:18:05.138Z,17.0
2018-05-08T06:19:05.876Z,17.1
2018-05-08T06:20:06.652Z,17.1
2018-05-08T06:21:07.374Z,17.2
2018-05-08T06:22:08.092Z,17.2
2018-05-08T06:23:08.829Z,17.3
2018-05-08T06:24:09.805Z,17.4
2018-05-08T06:25:10.555Z,17.5
2018-05-08T06:26:11.288Z,17.6
2018-05-08T06:27:12.024Z,17.6
2018-05-08T06:28:12.752Z,17.7
2018-05-08T06:29:13.487Z,17.7
2018-05-08T06:30:14.213Z,17.8
2018-05-08T06:31:14.993Z,17.8
2018-05-08T06:32:15.719Z,17.9
2018-05-08T06:33:16.443Z,18.0
2018-05-08T06:34:17.168Z,18.0
2018-05-08T06:35:17.891Z,18.1
2018-05-08T06:36:18.795Z,18.2
2018-05-08T06:37:19.764Z,18.2
2018-05-08T06:38:20.502Z,18.3
2018-05-08T06:39:21.222Z,18.3
2018-05-08T06:40:21.971Z,18.4
2018-05-08T06:41:22.710Z,18.4
2018-05-08T06:42:23.448Z,18.6
2018-05-08T06:43:24.174Z,18.6
2018-05-08T06:44:24.905Z,18.6
2018-05-08T06:45:25.652Z,18.8
2018-05-08T06:46:26.482Z,18.8
2018-05-08T06:47:27.214Z,19.0
2018-05-08T06:48:27.956Z,19.1
2018-05-08T06:49:28.693Z,19.1
2018-05-08T06:50:29.415Z,19.3
2018-05-08T06:51:30.151Z,19.4
2018-05-08T06:52:30.873Z,19.5
2018-05-08T06:53:31.607Z,19.5
2018-05-08T06:54:32.676Z,19.6
2018-05-08T06:55:33.408Z,19.6
2018-05-08T06:56:34.129Z,19.7
2018-05-08T06:57:35.109Z,19.8
2018-05-08T06:58:35.837Z,20.0
2018-05-08T06:59:36.560Z,20.1
2018-05-08T07:00:37.289Z,20.1
2018-05-08T07:01:38.009Z,20.2
2018-05-08T07:02:38.746Z,20.2
2018-05-08T07:03:39.486Z,20.3
2018-05-08T07:04:40.568Z,20.4
2018-05-08T07:05:41.299Z,20.5
2018-05-08T07:06:42.267Z,20.6
2018-05-08T07:07:42.996Z,20.6
2018-05-08T07:08:43.734Z,20.7
2018-05-08T07:09:44.460Z,20.8
2018-05-08T07:10:45.187Z,20.8
2018-05-08T07:11:45.934Z,20.9
2018-05-08T07:12:46.666Z,20.9
2018-05-08T07:13:47.401Z,20.9
2018-05-08T07:14:48.383Z,21.0
2018-05-08T07:15:49.217Z,21.0
2018-05-08T07:16:49.837Z,21.1
2018-05-08T07:17:50.824Z,21.3
2018-05-08T07:18:51.554Z,21.2
2018-05-08T07:19:52.289Z,21.2
2018-05-08T07:20:53.013Z,21.3
2018-05-08T07:21:53.750Z,21.4
2018-05-08T07:22:54.474Z,21.4
2018-05-08T07:23:55.219Z,21.6
2018-05-08T07:24:55.934Z,21.6
2018-05-08T07:25:56.682Z,21.9
2018-05-08T07:26:57.415Z,22.2
2018-05-08T07:27:58.396Z,22.2
2018-05-08T07:28:59.137Z,22.5
2018-05-08T07:30:00.036Z,22.7
2018-05-08T07:31:00.703Z,22.8
2018-05-08T07:32:01.447Z,22.9
2018-05-08T07:33:02.186Z,22.9
2018-05-08T07:34:02.909Z,23.0
2018-05-08T07:35:03.633Z,22.9
2018-05-08T07:36:04.363Z,23.4
2018-05-08T07:37:05.147Z,23.4
2018-05-08T07:38:05.897Z,23.7
2018-05-08T07:39:06.627Z,24.0
2018-05-08T07:40:07.366Z,23.8
2018-05-08T07:41:08.099Z,23.8
2018-05-08T07:42:08.884Z,24.1
2018-05-08T07:43:09.621Z,24.4
2018-05-08T07:44:10.349Z,24.9
2018-05-08T07:45:11.087Z,25.1
2018-05-08T07:46:11.816Z,25.2
2018-05-08T07:47:12.598Z,25.5
2018-05-08T07:48:13.333Z,25.6
2018-05-08T07:49:14.062Z,25.9
2018-05-08T07:50:14.837Z,25.6
2018-05-08T07:51:15.535Z,25.8
2018-05-08T07:52:16.269Z,26.2
2018-05-08T07:53:16.988Z,26.2
2018-05-08T07:54:17.728Z,26.1
2018-05-08T07:55:18.562Z,26.3
2018-05-08T07:56:19.300Z,26.2
2018-05-08T07:57:20.030Z,26.1
2018-05-08T07:58:20.766Z,26.2
2018-05-08T07:59:21.500Z,26.4
2018-05-08T08:00:22.229Z,26.2
2018-05-08T08:01:22.960Z,26.2
2018-05-08T08:02:23.705Z,26.4
2018-05-08T08:03:24.445Z,26.7
2018-05-08T08:04:25.170Z,26.9
2018-05-08T08:05:25.947Z,27.0
2018-05-08T08:06:26.692Z,26.8
2018-05-08T08:07:27.459Z,26.5
2018-05-08T08:08:28.142Z,26.6
2018-05-08T08:09:28.879Z,26.7
2018-05-08T08:10:29.959Z,26.8
2018-05-08T08:11:30.708Z,26.6
2018-05-08T08:12:31.441Z,26.7
2018-05-08T08:13:32.199Z,26.7
2018-05-08T08:14:32.927Z,26.5
2018-05-08T08:15:33.682Z,26.8
2018-05-08T08:16:34.452Z,26.9
2018-05-08T08:17:35.446Z,26.9
2018-05-08T08:18:36.203Z,27.0
2018-05-08T08:19:36.905Z,27.1
2018-05-08T08:20:37.645Z,27.1
2018-05-08T08:21:38.424Z,27.1
2018-05-08T08:22:39.164Z,27.3
2018-05-08T08:23:40.153Z,27.3
2018-05-08T08:24:40.887Z,27.1
2018-05-08T08:25:41.624Z,26.9
2018-05-08T08:26:42.414Z,27.0
2018-05-08T08:27:43.159Z,27.1
2018-05-08T08:28:43.896Z,27.5
2018-05-08T08:29:44.664Z,27.7
2018-05-08T08:30:45.354Z,28.0
2018-05-08T08:31:46.088Z,28.1
2018-05-08T08:32:46.822Z,28.2
2018-05-08T08:33:47.806Z,28.3
2018-05-08T08:34:48.551Z,28.4
2018-05-08T08:35:49.277Z,28.5
2018-05-08T08:36:50.034Z,28.4
2018-05-08T08:37:50.760Z,28.5
2018-05-08T08:38:51.499Z,28.6
2018-05-08T08:39:52.251Z,28.6
2018-05-08T08:40:53.020Z,28.7
2018-05-08T08:41:53.717Z,28.8
2018-05-08T08:42:54.450Z,28.7
2018-05-08T08:43:55.198Z,29.0
2018-05-08T08:44:55.977Z,29.2
2018-05-08T08:45:56.716Z,29.3
2018-05-08T08:46:57.454Z,29.1
2018-05-08T08:47:58.299Z,29.1
2018-05-08T08:48:58.927Z,28.9
2018-05-08T08:49:59.668Z,28.7
2018-05-08T08:51:00.401Z,28.8
2018-05-08T08:52:01.408Z,28.8
2018-05-08T08:53:02.145Z,29.0
2018-05-08T08:54:02.872Z,28.7
2018-05-08T08:55:03.610Z,28.5
2018-05-08T08:56:04.633Z,27.7
2018-05-08T08:57:05.372Z,27.2
2018-05-08T08:58:06.093Z,27.4
2018-05-08T08:59:06.832Z,27.5
2018-05-08T09:00:07.819Z,27.4
2018-05-08T09:01:08.801Z,27.9
2018-05-08T09:02:09.554Z,27.9
2018-05-08T09:03:10.541Z,28.3
2018-05-08T09:04:11.268Z,28.5
2018-05-08T09:05:12.002Z,28.6
2018-05-08T09:06:12.733Z,28.8
2018-05-08T09:07:13.466Z,29.2
2018-05-08T09:08:14.199Z,29.4
2018-05-08T09:09:14.944Z,29.3
2018-05-08T09:10:15.947Z,29.4
2018-05-08T09:11:16.700Z,29.1
2018-05-08T09:12:17.427Z,29.1
2018-05-08T09:13:18.171Z,29.1
2018-05-08T09:14:18.909Z,28.9
2018-05-08T09:15:19.807Z,28.2
2018-05-08T09:16:20.549Z,28.1
2018-05-08T09:17:21.285Z,28.0
2018-05-08T09:18:22.265Z,28.2
2018-05-08T09:19:23.000Z,28.4
2018-05-08T09:20:23.742Z,28.2
2018-05-08T09:21:24.476Z,28.4
2018-05-08T09:22:25.216Z,28.4
2018-05-08T09:23:25.938Z,28.1
2018-05-08T09:24:26.676Z,28.3
2018-05-08T09:25:27.409Z,28.4
2018-05-08T09:26:28.154Z,28.2
2018-05-08T09:27:28.942Z,28.2
2018-05-08T09:28:29.647Z,28.5
2018-05-08T09:29:30.397Z,28.4
2018-05-08T09:30:31.221Z,28.6
2018-05-08T09:31:31.966Z,28.7
2018-05-08T09:32:32.705Z,28.6
2018-05-08T09:33:33.444Z,28.4
2018-05-08T09:34:34.189Z,28.5
2018-05-08T09:35:34.927Z,28.4
2018-05-08T09:36:35.661Z,28.7
2018-05-08T09:37:36.452Z,28.6
2018-05-08T09:38:37.443Z,28.8
2018-05-08T09:39:38.423Z,29.1
2018-05-08T09:40:39.173Z,28.8
2018-05-08T09:41:39.909Z,29.0
2018-05-08T09:42:40.687Z,29.0
2018-05-08T09:43:41.416Z,29.3
2018-05-08T09:44:42.410Z,29.6
2018-05-08T09:45:43.165Z,29.8
2018-05-08T09:46:43.885Z,29.7
2018-05-08T09:47:44.681Z,29.4
2018-05-08T09:48:45.436Z,29.1
2018-05-08T09:49:46.163Z,29.3
2018-05-08T09:50:46.895Z,29.5
2018-05-08T09:51:47.635Z,29.2
2018-05-08T09:52:48.426Z,29.3
2018-05-08T09:53:49.163Z,28.9
2018-05-08T09:54:49.909Z,28.8
2018-05-08T09:55:50.650Z,28.8
2018-05-08T09:56:51.387Z,29.2
2018-05-08T09:57:52.476Z,29.4
2018-05-08T09:58:53.213Z,29.9
2018-05-08T09:59:53.939Z,30.1
2018-05-08T10:00:54.695Z,30.3
2018-05-08T10:01:55.410Z,30.2
2018-05-08T10:02:56.156Z,30.6
2018-05-08T10:03:56.894Z,30.0
2018-05-08T10:04:58.091Z,30.1
2018-05-08T10:05:58.825Z,30.1
2018-05-08T10:06:59.580Z,30.2
2018-05-08T10:08:00.307Z,30.4
2018-05-08T10:09:01.379Z,30.2
2018-05-08T10:10:02.523Z,30.3
2018-05-08T10:11:03.515Z,30.3
2018-05-08T10:12:04.750Z,30.2
2018-05-08T10:13:05.916Z,30.2
2018-05-08T10:14:06.703Z,30.4
2018-05-08T10:15:07.485Z,30.4
2018-05-08T10:16:08.476Z,30.3
2018-05-08T10:17:09.234Z,30.2
2018-05-08T10:18:09.968Z,30.2
2018-05-08T10:19:10.699Z,30.1
2018-05-08T10:20:11.439Z,30.1
2018-05-08T10:21:12.191Z,30.2
2018-05-08T10:22:12.923Z,30.2
2018-05-08T10:23:13.991Z,29.9
2018-05-08T10:24:14.732Z,30.0
2018-05-08T10:25:15.624Z,30.1
2018-05-08T10:26:16.349Z,30.3
2018-05-08T10:27:17.988Z,30.4
2018-05-08T10:28:18.773Z,30.7
2018-05-08T10:29:19.507Z,31.0
2018-05-08T10:30:20.241Z,31.0
2018-05-08T10:31:20.983Z,30.7
2018-05-08T10:32:21.720Z,30.9
2018-05-08T10:33:22.451Z,30.9
2018-05-08T10:34:23.231Z,30.6
2018-05-08T10:35:23.952Z,30.5
2018-05-08T10:36:24.731Z,30.2
2018-05-08T10:37:25.472Z,30.3
2018-05-08T10:38:26.208Z,30.3
2018-05-08T10:39:26.945Z,30.8
2018-05-08T10:40:27.687Z,30.3
2018-05-08T10:41:28.824Z,29.7
2018-05-08T10:42:29.550Z,30.0
2018-05-08T10:43:30.299Z,30.1
2018-05-08T10:44:31.292Z,29.8
2018-05-08T10:45:32.027Z,30.2
2018-05-08T10:46:32.764Z,30.7
2018-05-08T10:47:33.491Z,31.3
2018-05-08T10:48:34.237Z,31.6
2018-05-08T10:49:35.018Z,31.6
2018-05-08T10:50:36.023Z,31.9
2018-05-08T10:51:37.030Z,31.5
2018-05-08T10:52:37.755Z,31.7
2018-05-08T10:53:38.509Z,31.9
2018-05-08T10:54:39.244Z,32.1
2018-05-08T10:55:40.055Z,32.2
2018-05-08T10:56:40.713Z,32.6
2018-05-08T10:57:41.442Z,32.7
2018-05-08T10:58:42.538Z,33.0
2018-05-08T10:59:43.266Z,32.4
2018-05-08T11:00:44.005Z,32.7
2018-05-08T11:01:44.785Z,32.4
2018-05-08T11:02:45.493Z,32.6
2018-05-08T11:03:46.280Z,32.0
2018-05-08T11:04:47.016Z,31.8
2018-05-08T11:05:47.757Z,32.1
2018-05-08T11:06:48.488Z,32.3
2018-05-08T11:07:49.232Z,32.2
2018-05-08T11:08:50.077Z,32.0
2018-05-08T11:09:50.811Z,31.9
2018-05-08T11:10:51.550Z,32.2
2018-05-08T11:11:52.289Z,32.1
2018-05-08T11:12:53.033Z,31.7
2018-05-08T11:13:53.759Z,31.5
2018-05-08T11:14:54.497Z,32.1
2018-05-08T11:15:55.234Z,32.2
2018-05-08T11:16:55.997Z,32.2
2018-05-08T11:17:56.726Z,32.2
2018-05-08T11:18:57.573Z,32.0
2018-05-08T11:19:58.332Z,32.1
2018-05-08T11:20:59.070Z,32.2
2018-05-08T11:21:59.815Z,31.9
2018-05-08T11:23:00.552Z,31.6
2018-05-08T11:24:01.638Z,30.7
2018-05-08T11:25:02.366Z,30.5
2018-05-08T11:26:03.105Z,30.7
2018-05-08T11:27:03.850Z,30.7
2018-05-08T11:28:04.597Z,30.7
2018-05-08T11:29:05.339Z,31.0
2018-05-08T11:30:06.328Z,31.4
2018-05-08T11:31:07.066Z,31.1
2018-05-08T11:32:07.800Z,31.1
2018-05-08T11:33:08.694Z,31.1
2018-05-08T11:34:09.444Z,31.5
2018-05-08T11:35:10.176Z,31.6
2018-05-08T11:36:11.174Z,31.5
2018-05-08T11:37:11.957Z,31.6
2018-05-08T11:38:12.694Z,31.4
2018-05-08T11:39:13.454Z,31.3
2018-05-08T11:40:14.193Z,31.0
2018-05-08T11:41:14.937Z,31.3
2018-05-08T11:42:15.676Z,31.5
2018-05-08T11:43:16.458Z,31.6
2018-05-08T11:44:17.197Z,31.4
2018-05-08T11:45:17.933Z,31.2
2018-05-08T11:46:18.917Z,30.8
2018-05-08T11:47:19.666Z,31.2
2018-05-08T11:48:21.107Z,30.9
2018-05-08T11:49:21.850Z,30.9
2018-05-08T11:50:22.585Z,30.9
2018-05-08T11:51:23.337Z,30.7
2018-05-08T11:52:24.070Z,30.8
2018-05-08T11:53:24.873Z,30.9
2018-05-08T11:54:25.877Z,31.1
2018-05-08T11:55:26.614Z,30.8
2018-05-08T11:56:27.359Z,31.0
2018-05-08T11:57:28.092Z,30.9
2018-05-08T11:58:28.925Z,30.8
2018-05-08T11:59:29.758Z,31.2
2018-05-08T12:00:30.733Z,31.5
2018-05-08T12:01:31.472Z,31.3
2018-05-08T12:02:32.233Z,31.2
2018-05-08T12:03:32.953Z,31.5
2018-05-08T12:04:33.694Z,31.4
2018-05-08T12:05:34.429Z,31.6
2018-05-08T12:06:35.186Z,32.0
2018-05-08T12:07:35.919Z,32.5
2018-05-08T12:08:36.674Z,32.6
2018-05-08T12:09:37.411Z,32.9
2018-05-08T12:10:38.159Z,33.2
2018-05-08T12:11:38.887Z,33.5
2018-05-08T12:12:39.876Z,33.6
2018-05-08T12:13:40.632Z,33.6
2018-05-08T12:14:41.478Z,33.6
2018-05-08T12:15:42.374Z,33.4
2018-05-08T12:16:43.103Z,33.2
2018-05-08T12:17:43.842Z,33.2
2018-05-08T12:18:44.736Z,32.9
2018-05-08T12:19:45.472Z,33.4
2018-05-08T12:20:46.208Z,32.6
2018-05-08T12:21:46.991Z,32.7
2018-05-08T12:22:47.686Z,32.9
2018-05-08T12:23:48.476Z,33.2
2018-05-08T12:24:49.210Z,33.3
2018-05-08T12:25:49.946Z,33.0
2018-05-08T12:26:50.711Z,32.5
2018-05-08T12:27:51.433Z,31.8
2018-05-08T12:28:52.328Z,31.8
2018-05-08T12:29:53.066Z,32.2
2018-05-08T12:30:53.801Z,32.6
2018-05-08T12:31:54.545Z,32.9
2018-05-08T12:32:55.300Z,33.5
2018-05-08T12:33:56.082Z,33.6
2018-05-08T12:34:56.825Z,33.1
2018-05-08T12:35:57.584Z,32.8
2018-05-08T12:36:58.320Z,32.8
2018-05-08T12:37:59.063Z,32.7
2018-05-08T12:38:59.804Z,32.7
2018-05-08T12:40:00.552Z,32.7
2018-05-08T12:41:01.383Z,32.3
2018-05-08T12:42:02.153Z,32.6
2018-05-08T12:43:02.860Z,32.8
2018-05-08T12:44:03.858Z,32.7
2018-05-08T12:45:04.810Z,32.8
2018-05-08T12:46:05.604Z,32.3
2018-05-08T12:47:06.339Z,31.8
2018-05-08T12:48:07.081Z,32.0
2018-05-08T12:49:07.793Z,31.6
2018-05-08T12:50:08.581Z,31.5
2018-05-08T12:51:09.368Z,31.6
2018-05-08T12:52:10.109Z,31.9
2018-05-08T12:53:10.852Z,31.7
2018-05-08T12:54:11.589Z,31.8
2018-05-08T12:55:12.322Z,31.8
2018-05-08T12:56:13.246Z,32.1
2018-05-08T12:57:13.893Z,32.0
2018-05-08T12:58:14.637Z,31.7
2018-05-08T12:59:15.378Z,31.9
2018-05-08T13:00:16.122Z,31.9
2018-05-08T13:01:17.171Z,32.3
2018-05-08T13:02:17.942Z,32.6
2018-05-08T13:03:18.686Z,32.6
2018-05-08T13:04:19.430Z,32.2
2018-05-08T13:05:20.255Z,32.4
2018-05-08T13:06:20.914Z,32.3
2018-05-08T13:07:21.657Z,32.1
2018-05-08T13:08:22.393Z,31.6
2018-05-08T13:09:23.393Z,31.4
2018-05-08T13:10:24.476Z,31.7
2018-05-08T13:11:25.230Z,31.5
2018-05-08T13:12:25.973Z,31.6
2018-05-08T13:13:27.001Z,32.1
2018-05-08T13:14:29.426Z,32.1
2018-05-08T13:15:30.970Z,32.4
2018-05-08T13:16:31.822Z,32.4
2018-05-08T13:17:32.567Z,32.2
2018-05-08T13:18:33.293Z,31.6
2018-05-08T13:19:34.275Z,31.5
2018-05-08T13:20:35.475Z,31.4
2018-05-08T13:21:36.196Z,31.5
2018-05-08T13:22:36.939Z,31.8
2018-05-08T13:23:37.680Z,32.5
2018-05-08T13:24:38.421Z,32.7
2018-05-08T13:25:39.471Z,32.4
2018-05-08T13:26:40.195Z,32.3
2018-05-08T13:27:40.934Z,31.8
2018-05-08T13:28:41.937Z,31.8
2018-05-08T13:29:42.668Z,31.9